createdAt,value
2023-04-28T00:02:08.254Z,52.28
2023-04-28T00:04:42.301Z,52.34
2023-04-28T00:07:16.259Z,52.19
2023-04-28T00:09:49.708Z,52.19
2023-04-28T00:12:22.953Z,52.29
2023-04-28T00:14:56.905Z,52.27
2023-04-28T00:17:30.738Z,52.17
2023-04-28T00:20:04.844Z,52.26
2023-04-28T00:22:38.721Z,52.28
2023-04-28T00:25:13.046Z,52.27
2023-04-28T00:27:47.333Z,52.37
2023-04-28T00:30:21.552Z,52.36
2023-04-28T00:32:56.379Z,52.52
2023-04-28T00:35:29.983Z,52.58
2023-04-28T00:38:03.287Z,52.53
2023-04-28T00:40:40.882Z,52.69
2023-04-28T00:43:15.687Z,52.64
2023-04-28T00:45:50.516Z,52.71
2023-04-28T00:48:24.547Z,52.95
2023-04-28T00:50:58.318Z,53.16
2023-04-28T00:53:32.480Z,53.40
2023-04-28T00:56:07.358Z,53.54
2023-04-28T00:58:41.042Z,53.48
2023-04-28T01:01:14.452Z,53.42
2023-04-28T01:03:49.136Z,53.59
2023-04-28T01:06:23.438Z,53.66
2023-04-28T01:08:57.919Z,53.76
2023-04-28T01:11:31.458Z,53.82
2023-04-28T01:14:17.418Z,53.89
2023-04-28T01:16:51.727Z,53.96
2023-04-28T01:19:25.925Z,54.06
2023-04-28T01:22:00.077Z,54.11
2023-04-28T01:24:34.091Z,54.15
2023-04-28T01:27:10.579Z,54.24
2023-04-28T01:29:45.365Z,54.29
2023-04-28T01:32:19.298Z,54.40
2023-04-28T01:34:53.130Z,54.54
2023-04-28T01:37:26.948Z,54.62
2023-04-28T01:40:00.756Z,54.68
2023-04-28T01:42:34.229Z,54.75
2023-04-28T01:45:09.682Z,54.72
2023-04-28T01:47:43.392Z,54.81
2023-04-28T01:50:16.889Z,54.86
2023-04-28T01:52:50.645Z,55.04
2023-04-28T01:55:24.108Z,55.11
2023-04-28T01:57:59.042Z,55.27
2023-04-28T02:00:32.919Z,55.27
2023-04-28T02:03:06.381Z,55.38
2023-04-28T02:05:41.832Z,55.61
2023-04-28T02:08:15.353Z,55.53
2023-04-28T02:10:49.115Z,55.65
2023-04-28T02:13:22.578Z,55.76
2023-04-28T02:15:56.583Z,55.79
2023-04-28T02:18:30.777Z,55.91
2023-04-28T02:21:13.687Z,56.04
2023-04-28T02:23:47.910Z,56.14
2023-04-28T02:26:21.545Z,56.15
2023-04-28T02:28:58.242Z,56.19
2023-04-28T02:31:31.896Z,56.29
2023-04-28T02:34:05.562Z,56.27
2023-04-28T02:36:38.934Z,56.28
2023-04-28T02:39:14.706Z,56.36
2023-04-28T02:41:48.520Z,56.39
2023-04-28T02:44:22.147Z,56.29
2023-04-28T02:46:56.006Z,56.47
2023-04-28T02:49:32.260Z,56.63
2023-04-28T02:52:06.097Z,56.70
2023-04-28T02:54:40.069Z,56.63
2023-04-28T02:57:13.802Z,56.74
2023-04-28T02:59:47.280Z,56.85
2023-04-28T03:02:23.513Z,56.90
2023-04-28T03:04:57.887Z,56.94
2023-04-28T03:07:32.028Z,57.05
2023-04-28T03:10:06.038Z,57.08
2023-04-28T03:12:39.672Z,57.26
2023-04-28T03:15:14.419Z,57.29
2023-04-28T03:17:48.766Z,57.31
2023-04-28T03:20:22.722Z,57.39
2023-04-28T03:22:56.108Z,57.40
2023-04-28T03:25:30.104Z,57.49
2023-04-28T03:28:03.941Z,57.58
2023-04-28T03:30:37.300Z,57.69
2023-04-28T03:33:11.086Z,57.62
2023-04-28T03:35:45.013Z,57.78
2023-04-28T03:38:19.104Z,57.69
2023-04-28T03:40:52.833Z,57.68
2023-04-28T03:43:29.472Z,57.70
2023-04-28T03:46:21.130Z,57.66
2023-04-28T03:48:55.480Z,57.44
2023-04-28T03:51:29.458Z,57.49
2023-04-28T03:54:03.265Z,57.42
2023-04-28T03:56:37.478Z,57.33
2023-04-28T03:59:13.394Z,57.17
2023-04-28T04:01:47.001Z,57.16
2023-04-28T04:04:20.680Z,57.01
2023-04-28T04:06:55.611Z,57.08
2023-04-28T04:09:30.179Z,57.09
2023-04-28T04:12:04.024Z,57.06
2023-04-28T04:14:37.638Z,57.22
2023-04-28T04:17:11.304Z,57.26
2023-04-28T04:19:45.076Z,57.18
2023-04-28T04:22:19.249Z,57.20
2023-04-28T04:24:53.079Z,57.16
2023-04-28T04:27:26.673Z,56.98
2023-04-28T04:30:01.242Z,56.94
2023-04-28T04:32:34.690Z,56.88
2023-04-28T04:35:09.017Z,56.64
2023-04-28T04:37:42.994Z,56.67
2023-04-28T04:40:17.075Z,56.84
2023-04-28T04:42:54.606Z,56.82
2023-04-28T04:45:28.644Z,56.53
2023-04-28T04:48:02.587Z,56.26
2023-04-28T04:50:35.968Z,56.22
2023-04-28T04:53:13.310Z,56.40
2023-04-28T04:55:50.188Z,56.14
2023-04-28T04:58:25.653Z,56.23
2023-04-28T05:01:10.756Z,56.61
2023-04-28T05:03:44.670Z,54.64
2023-04-28T05:06:19.145Z,53.62
2023-04-28T05:08:56.935Z,54.46
2023-04-28T05:11:31.163Z,53.43
2023-04-28T05:14:04.713Z,50.65
2023-04-28T05:16:38.901Z,49.18
2023-04-28T05:19:23.713Z,50.44
2023-04-28T05:21:57.460Z,50.54
2023-04-28T05:24:31.310Z,49.47
2023-04-28T05:27:05.142Z,47.87
2023-04-28T05:29:39.076Z,45.75
2023-04-28T05:32:14.008Z,44.05
2023-04-28T05:34:48.524Z,42.58
2023-04-28T05:37:22.191Z,40.61
2023-04-28T05:39:55.947Z,38.79
2023-04-28T05:42:29.504Z,37.94
2023-04-28T05:45:03.309Z,36.84
2023-04-28T05:47:37.230Z,36.37
2023-04-28T05:50:12.813Z,35.52
2023-04-28T05:52:46.664Z,34.35
2023-04-28T05:55:20.625Z,32.22
2023-04-28T05:57:54.905Z,32.02
2023-04-28T06:00:29.393Z,31.99
2023-04-28T06:03:05.926Z,32.16
2023-04-28T06:05:39.804Z,32.22
2023-04-28T06:08:14.225Z,32.15
2023-04-28T06:10:47.751Z,31.68
2023-04-28T06:13:21.565Z,30.82
2023-04-28T06:15:55.364Z,30.16
2023-04-28T06:18:31.966Z,29.38
2023-04-28T06:21:07.774Z,29.17
2023-04-28T06:23:42.606Z,28.55
2023-04-28T06:26:18.234Z,27.61
2023-04-28T06:28:52.773Z,27.26
2023-04-28T06:31:26.538Z,26.79
2023-04-28T06:34:00.531Z,25.52
2023-04-28T06:36:34.611Z,24.52
2023-04-28T06:39:08.602Z,24.07
2023-04-28T06:41:42.917Z,23.23
2023-04-28T06:44:17.288Z,22.30
2023-04-28T06:46:51.886Z,22.02
2023-04-28T06:49:25.356Z,21.30
2023-04-28T06:52:04.863Z,20.01
2023-04-28T06:54:38.833Z,19.95
2023-04-28T06:57:15.299Z,19.96
2023-04-28T06:59:48.994Z,19.56
2023-04-28T07:02:22.666Z,19.20
2023-04-28T07:04:56.890Z,18.73
2023-04-28T07:07:30.334Z,18.26
2023-04-28T07:10:04.663Z,17.56
2023-04-28T07:12:38.458Z,16.99
2023-04-28T07:15:13.808Z,16.95
2023-04-28T07:17:47.371Z,16.97
2023-04-28T07:20:21.477Z,17.13
2023-04-28T07:22:55.238Z,17.36
2023-04-28T07:25:29.067Z,17.37
2023-04-28T07:28:04.991Z,17.34
2023-04-28T07:30:38.750Z,17.27
2023-04-28T07:33:12.465Z,16.95
2023-04-28T07:35:46.673Z,16.63
2023-04-28T07:38:20.817Z,16.42
2023-04-28T07:40:54.750Z,15.94
2023-04-28T07:43:28.740Z,15.39
2023-04-28T07:46:02.217Z,14.91
2023-04-28T07:48:36.409Z,14.32
2023-04-28T07:51:10.369Z,13.95
2023-04-28T07:53:44.347Z,14.17
2023-04-28T07:56:18.505Z,13.36
2023-04-28T07:58:52.962Z,13.64
2023-04-28T08:01:26.228Z,14.62
2023-04-28T08:04:00.266Z,15.13
2023-04-28T08:06:34.877Z,15.44
2023-04-28T08:09:08.706Z,15.82
2023-04-28T08:11:43.019Z,15.99
2023-04-28T08:14:18.228Z,15.66
2023-04-28T08:16:52.179Z,15.96
2023-04-28T08:19:25.663Z,15.94
2023-04-28T08:22:00.346Z,16.18
2023-04-28T08:24:34.829Z,16.54
2023-04-28T08:27:08.546Z,16.89
2023-04-28T08:29:42.205Z,17.04
2023-04-28T08:32:16.165Z,17.26
2023-04-28T08:34:49.535Z,17.67
2023-04-28T08:37:23.127Z,18.20
2023-04-28T08:40:02.613Z,17.52
2023-04-28T08:42:37.987Z,16.67
2023-04-28T08:45:17.004Z,15.63
2023-04-28T08:47:53.105Z,15.73
2023-04-28T08:50:29.132Z,16.02
2023-04-28T08:53:04.421Z,15.92
2023-04-28T08:55:39.273Z,15.93
2023-04-28T08:58:13.301Z,15.92
2023-04-28T09:00:47.012Z,16.61
2023-04-28T09:03:21.017Z,16.12
2023-04-28T09:05:54.942Z,15.63
2023-04-28T09:08:28.622Z,15.32
2023-04-28T09:11:13.979Z,14.82
2023-04-28T09:13:47.130Z,14.57
2023-04-28T09:16:20.702Z,14.41
2023-04-28T09:19:01.174Z,14.37
2023-04-28T09:21:34.685Z,14.62
2023-04-28T09:24:09.027Z,15.07
2023-04-28T09:26:55.426Z,15.42
2023-04-28T09:29:29.870Z,15.89
2023-04-28T09:32:18.747Z,16.38
2023-04-28T09:34:54.247Z,16.83
2023-04-28T09:37:31.193Z,17.27
2023-04-28T09:40:10.869Z,17.74
2023-04-28T09:42:46.901Z,18.11
2023-04-28T09:45:20.919Z,18.47
2023-04-28T09:47:55.232Z,18.57
2023-04-28T09:50:29.196Z,18.39
2023-04-28T09:53:04.470Z,18.47
2023-04-28T09:55:43.860Z,18.68
2023-04-28T09:58:18.860Z,18.90
2023-04-28T10:00:55.758Z,19.51
2023-04-28T10:03:30.886Z,19.85
2023-04-28T10:06:05.967Z,19.56
2023-04-28T10:08:40.605Z,18.49
2023-04-28T10:11:14.800Z,17.82
2023-04-28T10:13:49.027Z,18.16
2023-04-28T10:16:24.104Z,18.75
2023-04-28T10:18:58.053Z,19.29
2023-04-28T10:21:37.950Z,18.99
2023-04-28T10:24:16.973Z,18.91
2023-04-28T10:27:11.758Z,19.09
2023-04-28T10:29:45.559Z,19.38
2023-04-28T10:32:29.365Z,19.79
2023-04-28T10:35:32.578Z,20.27
2023-04-28T10:38:09.951Z,20.06
2023-04-28T10:40:45.149Z,19.77
2023-04-28T10:43:40.169Z,19.92
2023-04-28T10:46:15.102Z,19.33
2023-04-28T10:49:03.570Z,19.33
2023-04-28T10:51:38.430Z,19.39
2023-04-28T10:54:24.438Z,19.55
2023-04-28T10:57:19.803Z,19.02
2023-04-28T11:00:27.449Z,17.74
2023-04-28T11:03:00.870Z,16.75
2023-04-28T11:05:35.567Z,15.98
2023-04-28T11:08:37.927Z,15.13
2023-04-28T11:11:26.546Z,15.17
2023-04-28T11:14:36.514Z,15.51
2023-04-28T11:17:13.787Z,15.44
2023-04-28T11:19:50.073Z,14.90
2023-04-28T11:22:24.571Z,14.65
2023-04-28T11:25:02.150Z,13.99
2023-04-28T11:27:34.915Z,13.50
2023-04-28T11:30:25.719Z,13.42
2023-04-28T11:32:59.482Z,13.53
2023-04-28T11:35:45.716Z,13.68
2023-04-28T11:38:19.633Z,13.84
2023-04-28T11:41:02.474Z,14.11
2023-04-28T11:43:46.574Z,15.36
2023-04-28T11:46:23.548Z,15.68
2023-04-28T11:49:06.682Z,15.51
2023-04-28T11:51:42.030Z,15.92
2023-04-28T11:54:15.412Z,15.91
2023-04-28T11:56:48.945Z,15.95
2023-04-28T11:59:26.329Z,15.52
2023-04-28T12:01:59.889Z,16.09
2023-04-28T12:04:36.820Z,16.51
2023-04-28T12:07:12.365Z,16.08
2023-04-28T12:09:49.102Z,16.08
2023-04-28T12:12:49.133Z,16.39
2023-04-28T12:15:25.695Z,16.61
2023-04-28T12:18:11.014Z,16.92
2023-04-28T12:20:45.267Z,17.39
2023-04-28T12:23:30.917Z,17.69
2023-04-28T12:26:05.829Z,16.84
2023-04-28T12:28:43.283Z,16.64
2023-04-28T12:31:17.052Z,16.33
2023-04-28T12:33:51.425Z,16.32
2023-04-28T12:36:25.070Z,15.90
2023-04-28T12:38:59.102Z,15.70
2023-04-28T12:41:32.987Z,15.51
2023-04-28T12:44:06.921Z,14.63
2023-04-28T12:46:40.538Z,14.50
2023-04-28T12:49:14.392Z,14.74
2023-04-28T12:51:48.654Z,14.79
2023-04-28T12:54:22.664Z,14.76
2023-04-28T12:56:56.299Z,15.28
2023-04-28T12:59:30.067Z,15.61
2023-04-28T13:02:03.637Z,16.20
2023-04-28T13:04:37.687Z,15.94
2023-04-28T13:07:11.690Z,15.97
2023-04-28T13:09:45.973Z,15.52
2023-04-28T13:12:19.835Z,16.03
2023-04-28T13:14:53.514Z,16.86
2023-04-28T13:17:27.519Z,17.20
2023-04-28T13:20:01.757Z,17.79
2023-04-28T13:22:35.201Z,18.14
2023-04-28T13:25:10.451Z,18.50
2023-04-28T13:27:44.026Z,18.81
2023-04-28T13:30:18.709Z,18.96
2023-04-28T13:32:54.483Z,19.11
2023-04-28T13:35:30.147Z,19.88
2023-04-28T13:38:04.772Z,20.38
2023-04-28T13:40:38.466Z,20.60
2023-04-28T13:43:12.127Z,20.75
2023-04-28T13:45:46.283Z,21.00
2023-04-28T13:48:19.920Z,21.08
2023-04-28T13:50:53.570Z,21.11
2023-04-28T13:53:27.095Z,21.52
2023-04-28T13:56:00.904Z,21.71
2023-04-28T13:58:34.608Z,22.11
2023-04-28T14:01:08.298Z,22.40
2023-04-28T14:03:42.270Z,22.47
2023-04-28T14:06:16.148Z,22.55
2023-04-28T14:08:50.210Z,22.60
2023-04-28T14:11:23.897Z,22.66
2023-04-28T14:13:57.870Z,22.71
2023-04-28T14:16:31.561Z,23.08
2023-04-28T14:19:07.693Z,23.30
2023-04-28T14:21:42.373Z,23.24
2023-04-28T14:24:16.116Z,23.27
2023-04-28T14:26:50.132Z,23.34
2023-04-28T14:29:24.568Z,23.47
2023-04-28T14:31:58.711Z,23.45
2023-04-28T14:34:32.162Z,23.48
2023-04-28T14:37:06.439Z,23.57
2023-04-28T14:39:41.066Z,23.69
2023-04-28T14:42:14.389Z,23.83
2023-04-28T14:44:48.612Z,23.85
2023-04-28T14:47:22.572Z,24.03
2023-04-28T14:49:56.399Z,24.10
2023-04-28T14:52:32.096Z,24.50
2023-04-28T14:55:07.399Z,24.63
2023-04-28T14:57:40.920Z,24.89
2023-04-28T15:00:16.616Z,25.08
2023-04-28T15:02:50.869Z,25.16
2023-04-28T15:05:24.797Z,25.28
2023-04-28T15:07:59.099Z,25.53
2023-04-28T15:10:41.172Z,25.77
2023-04-28T15:13:14.799Z,25.78
2023-04-28T15:15:49.245Z,25.90
2023-04-28T15:18:23.036Z,25.85
2023-04-28T15:20:56.577Z,26.02
2023-04-28T15:23:30.224Z,26.12
2023-04-28T15:26:05.354Z,26.33
2023-04-28T15:28:39.715Z,26.55
2023-04-28T15:31:13.708Z,26.83
2023-04-28T15:33:47.846Z,26.90
2023-04-28T15:36:21.673Z,27.29
2023-04-28T15:38:55.394Z,27.31
2023-04-28T15:41:29.603Z,27.52
2023-04-28T15:44:03.448Z,27.75
2023-04-28T15:46:37.384Z,27.92
2023-04-28T15:49:11.499Z,27.92
2023-04-28T15:51:45.952Z,28.02
2023-04-28T15:54:19.698Z,28.30
2023-04-28T15:56:53.324Z,28.20
2023-04-28T15:59:27.222Z,28.15
2023-04-28T16:02:00.882Z,28.07
2023-04-28T16:04:34.855Z,28.20
2023-04-28T16:07:08.676Z,28.30
2023-04-28T16:09:42.631Z,28.42
2023-04-28T16:12:17.182Z,28.55
2023-04-28T16:14:53.457Z,28.63
2023-04-28T16:17:27.368Z,28.69
2023-04-28T16:20:01.349Z,28.76
2023-04-28T16:22:36.885Z,28.73
2023-04-28T16:25:12.063Z,28.93
2023-04-28T16:27:45.467Z,29.15
2023-04-28T16:30:19.024Z,29.14
2023-04-28T16:32:53.366Z,29.13
2023-04-28T16:35:27.773Z,29.17
2023-04-28T16:38:01.415Z,29.21
2023-04-28T16:40:35.866Z,29.17
2023-04-28T16:43:10.584Z,29.15
2023-04-28T16:45:44.488Z,29.34
2023-04-28T16:48:20.562Z,29.41
2023-04-28T16:50:55.227Z,29.40
2023-04-28T16:53:29.023Z,29.51
2023-04-28T16:56:02.874Z,29.56
2023-04-28T16:58:36.950Z,29.59
2023-04-28T17:01:10.487Z,29.69
2023-04-28T17:03:44.790Z,29.92
2023-04-28T17:06:18.959Z,30.00
2023-04-28T17:08:52.583Z,30.05
2023-04-28T17:11:27.307Z,30.13
2023-04-28T17:14:01.020Z,30.24
2023-04-28T17:16:36.503Z,30.53
2023-04-28T17:19:11.027Z,30.57
2023-04-28T17:21:46.927Z,30.90
2023-04-28T17:24:21.486Z,30.96
2023-04-28T17:26:55.801Z,31.07
2023-04-28T17:29:29.573Z,31.27
2023-04-28T17:32:03.182Z,31.50
2023-04-28T17:34:36.728Z,31.59
2023-04-28T17:37:10.633Z,31.81
2023-04-28T17:39:44.168Z,31.90
2023-04-28T17:42:18.540Z,31.96
2023-04-28T17:44:52.467Z,31.98
2023-04-28T17:47:26.666Z,32.12
2023-04-28T17:50:01.183Z,32.21
2023-04-28T17:52:35.318Z,32.14
2023-04-28T17:55:10.317Z,32.28
2023-04-28T17:57:45.266Z,32.43
2023-04-28T18:00:20.124Z,32.43
2023-04-28T18:02:55.578Z,32.48
2023-04-28T18:05:30.354Z,32.65
2023-04-28T18:08:05.221Z,32.57
2023-04-28T18:10:39.608Z,32.93
2023-04-28T18:13:14.687Z,33.08
2023-04-28T18:15:50.281Z,33.07
2023-04-28T18:18:23.822Z,33.11
2023-04-28T18:21:02.754Z,33.28
2023-04-28T18:23:39.236Z,33.44
2023-04-28T18:26:19.160Z,33.51
2023-04-28T18:28:55.795Z,33.60
2023-04-28T18:31:30.930Z,33.63
2023-04-28T18:34:05.683Z,33.66
2023-04-28T18:36:40.655Z,33.94
2023-04-28T18:39:16.348Z,34.10
2023-04-28T18:41:53.467Z,34.17
2023-04-28T18:44:28.701Z,34.26
2023-04-28T18:47:03.452Z,34.57
2023-04-28T18:49:39.825Z,34.62
2023-04-28T18:52:15.122Z,34.59
2023-04-28T18:54:49.890Z,34.60
2023-04-28T18:57:25.120Z,34.76
2023-04-28T19:00:03.630Z,34.79
2023-04-28T19:02:38.800Z,34.90
2023-04-28T19:05:14.540Z,35.02
2023-04-28T19:07:52.354Z,35.20
2023-04-28T19:10:26.942Z,35.16
2023-04-28T19:13:02.989Z,35.30
2023-04-28T19:15:38.544Z,35.32
2023-04-28T19:18:13.801Z,35.37
2023-04-28T19:20:48.237Z,35.49
2023-04-28T19:23:23.859Z,35.60
2023-04-28T19:25:59.065Z,35.71
2023-04-28T19:28:39.062Z,35.72
2023-04-28T19:31:18.915Z,35.70
2023-04-28T19:33:58.628Z,35.78
2023-04-28T19:36:34.225Z,35.79
2023-04-28T19:39:11.345Z,35.98
2023-04-28T19:41:49.397Z,36.01
2023-04-28T19:44:24.946Z,36.10
2023-04-28T19:47:01.035Z,36.25
2023-04-28T19:49:36.993Z,36.25
2023-04-28T19:52:12.626Z,36.33
2023-04-28T19:54:50.151Z,36.33
2023-04-28T19:57:26.392Z,36.60
2023-04-28T20:00:03.897Z,36.74
2023-04-28T20:02:45.394Z,36.85
2023-04-28T20:05:25.278Z,36.85
2023-04-28T20:08:01.110Z,36.92
2023-04-28T20:10:35.382Z,36.98
2023-04-28T20:13:10.261Z,37.06
2023-04-28T20:15:45.064Z,37.17
2023-04-28T20:18:20.870Z,37.27
2023-04-28T20:21:08.467Z,37.35
2023-04-28T20:23:44.102Z,37.63
2023-04-28T20:26:21.666Z,37.74
2023-04-28T20:28:58.840Z,37.83
2023-04-28T20:31:33.601Z,37.90
2023-04-28T20:34:08.306Z,38.14
2023-04-28T20:36:43.093Z,38.23
2023-04-28T20:39:17.319Z,38.24
2023-04-28T20:41:51.233Z,38.52
2023-04-28T20:44:25.193Z,38.77
2023-04-28T20:46:59.516Z,38.87
2023-04-28T20:49:33.753Z,39.06
2023-04-28T20:52:07.713Z,38.98
2023-04-28T20:54:43.987Z,39.29
2023-04-28T20:57:18.090Z,39.51
2023-04-28T20:59:52.188Z,40.09
2023-04-28T21:02:26.407Z,39.82
2023-04-28T21:05:00.711Z,40.02
2023-04-28T21:07:34.713Z,40.04
2023-04-28T21:10:10.548Z,40.38
2023-04-28T21:12:45.160Z,40.51
2023-04-28T21:15:19.332Z,40.50
2023-04-28T21:17:53.164Z,40.89
2023-04-28T21:20:26.604Z,40.84
2023-04-28T21:23:00.185Z,40.94
2023-04-28T21:25:33.793Z,41.15
2023-04-28T21:28:07.955Z,41.17
2023-04-28T21:30:41.704Z,41.17
2023-04-28T21:33:16.320Z,41.20
2023-04-28T21:35:50.387Z,41.46
2023-04-28T21:38:24.058Z,41.74
2023-04-28T21:40:57.600Z,41.68
2023-04-28T21:43:31.267Z,41.73
2023-04-28T21:46:05.300Z,42.03
2023-04-28T21:48:39.677Z,42.29
2023-04-28T21:51:14.785Z,42.24
2023-04-28T21:53:48.475Z,42.38
2023-04-28T21:56:22.215Z,42.27
2023-04-28T21:58:56.082Z,42.67
2023-04-28T22:01:30.078Z,42.56
2023-04-28T22:04:04.224Z,42.78
2023-04-28T22:06:38.241Z,42.88
2023-04-28T22:09:11.647Z,43.28
2023-04-28T22:11:45.060Z,43.30
2023-04-28T22:14:38.936Z,43.14
2023-04-28T22:17:12.294Z,43.28
2023-04-28T22:19:46.309Z,43.33
2023-04-28T22:22:20.711Z,43.56
2023-04-28T22:24:54.972Z,43.44
2023-04-28T22:27:30.705Z,43.58
2023-04-28T22:30:04.475Z,43.84
2023-04-28T22:32:38.108Z,43.89
2023-04-28T22:35:13.116Z,43.82
2023-04-28T22:37:47.153Z,43.96
2023-04-28T22:40:21.578Z,44.21
2023-04-28T22:42:54.821Z,44.29
2023-04-28T22:45:29.032Z,44.38
2023-04-28T22:48:02.703Z,44.87
2023-04-28T22:50:36.092Z,44.63
2023-04-28T22:53:09.832Z,44.75
2023-04-28T22:55:43.961Z,44.63
2023-04-28T22:58:17.267Z,44.84
2023-04-28T23:00:50.954Z,45.00
2023-04-28T23:03:24.447Z,44.97
2023-04-28T23:05:58.149Z,45.11
2023-04-28T23:08:31.737Z,45.31
2023-04-28T23:11:06.827Z,45.50
2023-04-28T23:13:40.224Z,45.48
2023-04-28T23:16:14.378Z,45.66
2023-04-28T23:18:48.451Z,45.98
2023-04-28T23:21:22.441Z,46.07
2023-04-28T23:23:56.149Z,46.27
2023-04-28T23:26:29.922Z,46.35
2023-04-28T23:29:03.336Z,46.26
2023-04-28T23:31:40.155Z,46.58
2023-04-28T23:34:14.230Z,46.58
2023-04-28T23:36:47.922Z,46.58
2023-04-28T23:39:21.386Z,46.58
2023-04-28T23:41:55.050Z,46.88
2023-04-28T23:44:29.029Z,47.08
2023-04-28T23:47:02.621Z,47.02
2023-04-28T23:49:36.240Z,47.25
2023-04-28T23:52:09.787Z,47.41
2023-04-28T23:54:43.872Z,47.45
2023-04-28T23:57:17.521Z,47.52
2023-04-28T23:59:51.476Z,47.72
